Time;durP1;ratioP1;P1;durP2;ratioP2;P2;SDS_P1;SDS_P2;PMS_P1;PMS_P2;Temp;Humidity;BMP_temperature;BMP_pressure;BME280_temperature;BME280_humidity;BME280_pressure;Samples;Min_cycle;Max_cycle;Signal;HPM_P1;HPM_P2
2022/09/20 00:00:16;;;;;;;4.18;1.70;;;;;;;;;;5060593;28;20150;-63
2022/09/20 00:02:42;;;;;;;5.53;1.80;;;;;;;;;;5052907;28;20391;-65
2022/09/20 00:05:08;;;;;;;6.97;1.83;;;;;;;;;;5053135;28;20065;-63
2022/09/20 00:07:33;;;;;;;9.35;2.33;;;;;;;;;;5069376;28;20035;-64
2022/09/20 00:10:00;;;;;;;7.90;2.13;;;;;;;;;;5072029;28;20059;-61
2022/09/20 00:12:25;;;;;;;8.23;2.05;;;;;;;;;;5072303;28;20097;-64
2022/09/20 00:14:51;;;;;;;12.02;2.38;;;;;;;;;;5072652;28;20119;-62
2022/09/20 00:17:17;;;;;;;9.43;2.40;;;;;;;;;;5071265;28;20028;-62
2022/09/20 00:19:43;;;;;;;6.68;2.00;;;;;;;;;;5072250;28;20086;-64
2022/09/20 00:22:09;;;;;;;6.30;2.10;;;;;;;;;;5062608;28;20025;-60
2022/09/20 00:24:35;;;;;;;6.28;2.60;;;;;;;;;;5054008;28;20025;-64
2022/09/20 00:27:02;;;;;;;5.55;2.10;;;;;;;;;;5052352;28;20321;-63
2022/09/20 00:29:28;;;;;;;10.90;2.72;;;;;;;;;;5051096;28;20045;-64
2022/09/20 00:31:54;;;;;;;4.28;2.40;;;;;;;;;;5052317;28;20545;-66
2022/09/20 00:37:04;;;;;;;8.48;2.10;;;;;;;;;;5051842;28;20064;-63
2022/09/20 00:39:30;;;;;;;9.45;2.60;;;;;;;;;;5053012;28;20082;-63
2022/09/20 00:41:56;;;;;;;4.85;2.20;;;;;;;;;;5071880;28;20029;-65
2022/09/20 00:44:39;;;;;;;4.03;2.00;;;;;;;;;;5068721;28;20036;-63
2022/09/20 00:47:18;;;;;;;4.28;2.05;;;;;;;;;;5052730;28;20052;-64
2022/09/20 00:49:44;;;;;;;3.92;2.67;;;;;;;;;;5068065;28;20039;-63
2022/09/20 00:52:10;;;;;;;5.22;1.95;;;;;;;;;;5069984;28;20024;-64
2022/09/20 00:54:36;;;;;;;3.78;2.00;;;;;;;;;;5068793;28;20491;-64
2022/09/20 00:57:02;;;;;;;7.55;2.40;;;;;;;;;;5071763;28;20025;-62
2022/09/20 00:59:39;;;;;;;6.25;2.05;;;;;;;;;;5072328;28;20040;-63
2022/09/20 01:02:27;;;;;;;7.50;2.63;;;;;;;;;;5072422;28;20040;-63
2022/09/20 01:04:56;;;;;;;4.70;2.10;;;;;;;;;;5071834;28;20406;-64
2022/09/20 01:07:23;;;;;;;7.25;2.25;;;;;;;;;;5071433;28;20024;-63
2022/09/20 01:09:49;;;;;;;6.68;2.10;;;;;;;;;;5052150;28;20079;-64
2022/09/20 01:12:20;;;;;;;4.35;2.15;;;;;;;;;;5052165;28;20056;-63
2022/09/20 01:14:49;;;;;;;5.82;2.35;;;;;;;;;;5051839;28;20032;-62
2022/09/20 01:17:18;;;;;;;8.15;2.50;;;;;;;;;;5051372;28;20027;-64
2022/09/20 01:20:13;;;;;;;7.32;2.25;;;;;;;;;;5051559;28;20060;-64
2022/09/20 01:23:07;;;;;;;8.20;2.53;;;;;;;;;;5046967;28;20044;-62
2022/09/20 01:25:45;;;;;;;10.68;3.28;;;;;;;;;;5051657;28;20041;-63
2022/09/20 01:28:11;;;;;;;5.55;2.60;;;;;;;;;;5051729;28;20037;-62
2022/09/20 01:30:46;;;;;;;5.22;2.33;;;;;;;;;;5052077;28;20035;-63
2022/09/20 01:33:31;;;;;;;7.28;2.10;;;;;;;;;;5051799;28;20057;-62
2022/09/20 01:36:03;;;;;;;3.70;2.08;;;;;;;;;;5052118;28;20446;-64
2022/09/20 01:38:38;;;;;;;17.73;3.70;;;;;;;;;;5052007;28;20579;-63
2022/09/20 01:41:07;;;;;;;7.10;2.25;;;;;;;;;;5052125;28;20044;-62
2022/09/20 01:43:41;;;;;;;8.10;2.85;;;;;;;;;;5052119;28;20037;-63
2022/09/20 01:46:27;;;;;;;9.80;3.50;;;;;;;;;;5051717;28;20037;-63
2022/09/20 01:49:01;;;;;;;5.25;2.30;;;;;;;;;;5052829;28;20029;-63
2022/09/20 01:51:39;;;;;;;8.65;2.60;;;;;;;;;;5055782;28;20033;-64
2022/09/20 01:54:14;;;;;;;9.80;2.60;;;;;;;;;;5070176;28;20082;-68
2022/09/20 01:57:02;;;;;;;9.88;2.50;;;;;;;;;;5075666;28;20605;-62
2022/09/20 02:00:12;;;;;;;7.00;2.45;;;;;;;;;;5075353;28;20036;-64
2022/09/20 02:02:50;;;;;;;4.38;2.42;;;;;;;;;;5074936;28;20636;-63
2022/09/20 02:05:50;;;;;;;5.68;2.45;;;;;;;;;;5071310;28;20070;-63
2022/09/20 02:09:00;;;;;;;11.25;2.90;;;;;;;;;;5055204;28;20037;-63
2022/09/20 02:11:44;;;;;;;7.20;2.90;;;;;;;;;;5054381;28;20076;-66
2022/09/20 02:14:31;;;;;;;9.93;2.75;;;;;;;;;;5055030;28;20090;-63
2022/09/20 02:17:12;;;;;;;9.02;2.70;;;;;;;;;;5055007;28;20125;-62
2022/09/20 02:20:07;;;;;;;8.93;2.30;;;;;;;;;;5055232;28;20033;-63
2022/09/20 02:22:38;;;;;;;7.18;2.38;;;;;;;;;;5055177;28;20045;-62
2022/09/20 02:25:28;;;;;;;10.02;2.65;;;;;;;;;;5055429;28;20032;-64
2022/09/20 02:28:43;;;;;;;7.35;2.35;;;;;;;;;;5055096;28;20041;-64
2022/09/20 02:31:27;;;;;;;4.00;2.50;;;;;;;;;;5054184;28;20045;-63
2022/09/20 02:34:10;;;;;;;6.72;2.65;;;;;;;;;;5055033;28;20471;-63
2022/09/20 02:37:01;;;;;;;6.75;3.05;;;;;;;;;;5055011;28;20057;-62
2022/09/20 02:39:36;;;;;;;6.18;2.60;;;;;;;;;;5054871;28;20391;-62
2022/09/20 02:42:28;;;;;;;8.63;2.55;;;;;;;;;;5055130;28;20028;-63
2022/09/20 02:45:11;;;;;;;8.63;3.13;;;;;;;;;;5054855;28;20033;-62
2022/09/20 02:47:42;;;;;;;10.05;2.72;;;;;;;;;;5054754;28;20108;-63
2022/09/20 02:50:28;;;;;;;9.20;2.90;;;;;;;;;;5054714;28;20064;-62
2022/09/20 02:53:06;;;;;;;6.63;3.00;;;;;;;;;;5054740;28;20150;-64
2022/09/20 02:56:00;;;;;;;7.15;3.25;;;;;;;;;;5055214;28;20112;-62
2022/09/20 02:58:47;;;;;;;6.20;3.00;;;;;;;;;;5054516;28;20045;-62
2022/09/20 03:01:31;;;;;;;8.60;2.88;;;;;;;;;;5053755;28;20033;-62
2022/09/20 03:04:21;;;;;;;9.05;3.58;;;;;;;;;;5052591;28;20036;-63
2022/09/20 03:07:16;;;;;;;14.23;3.42;;;;;;;;;;5053992;28;20036;-62
2022/09/20 03:10:01;;;;;;;9.05;3.25;;;;;;;;;;5054328;28;20029;-63
2022/09/20 03:12:56;;;;;;;4.47;2.95;;;;;;;;;;5053124;28;20434;-62
2022/09/20 03:15:37;;;;;;;9.30;3.53;;;;;;;;;;5053858;28;20438;-64
2022/09/20 03:18:10;;;;;;;11.25;3.10;;;;;;;;;;5059894;28;20082;-66
2022/09/20 03:20:51;;;;;;;7.75;3.17;;;;;;;;;;5053778;28;20041;-62
2022/09/20 03:23:37;;;;;;;7.60;3.60;;;;;;;;;;5053931;28;20029;-67
2022/09/20 03:26:30;;;;;;;11.50;3.60;;;;;;;;;;5053757;28;20036;-62
2022/09/20 03:29:15;;;;;;;7.47;2.92;;;;;;;;;;5053584;28;20044;-63
2022/09/20 03:31:56;;;;;;;7.70;2.60;;;;;;;;;;5053498;28;20040;-62
2022/09/20 03:34:24;;;;;;;9.80;2.97;;;;;;;;;;5053553;28;20045;-62
2022/09/20 03:37:05;;;;;;;11.23;3.60;;;;;;;;;;5053631;28;20480;-63
2022/09/20 03:39:45;;;;;;;7.82;3.28;;;;;;;;;;5053638;28;20487;-67
2022/09/20 03:42:24;;;;;;;6.20;2.58;;;;;;;;;;5053637;28;20392;-62
2022/09/20 03:45:28;;;;;;;6.75;3.30;;;;;;;;;;5053686;28;20033;-63
2022/09/20 03:48:12;;;;;;;8.30;3.35;;;;;;;;;;5053326;28;20119;-62
2022/09/20 03:51:24;;;;;;;5.53;2.85;;;;;;;;;;5051418;28;20426;-62
2022/09/20 03:54:00;;;;;;;9.27;2.90;;;;;;;;;;5050518;28;20037;-62
2022/09/20 03:56:31;;;;;;;9.10;3.63;;;;;;;;;;5051796;28;20066;-62
2022/09/20 03:59:32;;;;;;;10.50;3.40;;;;;;;;;;5061712;28;20056;-62
2022/09/20 04:02:13;;;;;;;9.05;3.50;;;;;;;;;;5051440;28;20069;-62
2022/09/20 04:05:00;;;;;;;4.65;2.65;;;;;;;;;;5053392;28;20045;-61
2022/09/20 04:07:51;;;;;;;7.65;2.50;;;;;;;;;;5053557;28;20044;-62
2022/09/20 04:10:50;;;;;;;9.30;2.83;;;;;;;;;;5052014;28;20107;-70
2022/09/20 04:13:35;;;;;;;14.38;4.13;;;;;;;;;;5053445;28;20171;-69
2022/09/20 04:16:00;;;;;;;13.43;5.10;;;;;;;;;;5055376;28;20028;-66
2022/09/20 04:18:39;;;;;;;16.00;4.63;;;;;;;;;;5062323;28;20126;-66
2022/09/20 04:21:27;;;;;;;21.00;4.57;;;;;;;;;;5064040;28;20490;-63
2022/09/20 04:23:59;;;;;;;10.50;3.72;;;;;;;;;;5058665;28;20153;-62
2022/09/20 04:26:29;;;;;;;22.30;5.45;;;;;;;;;;5053390;28;20036;-61
2022/09/20 04:29:08;;;;;;;11.02;3.25;;;;;;;;;;5072782;28;20035;-62
2022/09/20 04:31:41;;;;;;;14.57;2.63;;;;;;;;;;5073066;28;20041;-63
2022/09/20 04:34:21;;;;;;;6.22;2.47;;;;;;;;;;5073284;28;20071;-61
2022/09/20 04:36:53;;;;;;;4.72;2.72;;;;;;;;;;5072999;28;20036;-62
2022/09/20 04:39:19;;;;;;;5.28;2.75;;;;;;;;;;5072839;28;20138;-62
2022/09/20 04:42:03;;;;;;;7.25;2.58;;;;;;;;;;5073119;28;20029;-62
2022/09/20 04:44:52;;;;;;;5.20;2.13;;;;;;;;;;5073283;28;20424;-63
2022/09/20 04:47:52;;;;;;;4.70;2.35;;;;;;;;;;5062586;28;20056;-60
2022/09/20 04:50:41;;;;;;;7.47;2.72;;;;;;;;;;5060991;28;20025;-62
2022/09/20 04:53:39;;;;;;;7.30;2.75;;;;;;;;;;5080218;28;20052;-61
2022/09/20 04:56:29;;;;;;;12.98;4.00;;;;;;;;;;5069335;28;20029;-62
2022/09/20 04:59:04;;;;;;;8.80;3.10;;;;;;;;;;5072195;28;20040;-62
2022/09/20 05:01:42;;;;;;;7.05;3.08;;;;;;;;;;5055760;28;20032;-63
2022/09/20 05:04:29;;;;;;;15.77;3.60;;;;;;;;;;5052301;28;20033;-61
2022/09/20 05:07:40;;;;;;;6.10;2.47;;;;;;;;;;5052172;28;20037;-62
2022/09/20 05:10:25;;;;;;;9.77;3.70;;;;;;;;;;5054908;28;20558;-64
2022/09/20 05:12:53;;;;;;;11.07;3.10;;;;;;;;;;5053256;28;20524;-63
2022/09/20 05:15:35;;;;;;;8.07;3.70;;;;;;;;;;5072520;28;20099;-63
2022/09/20 05:18:33;;;;;;;5.60;2.47;;;;;;;;;;5065040;28;20068;-63
2022/09/20 05:21:33;;;;;;;10.10;3.17;;;;;;;;;;5071911;28;20045;-63
2022/09/20 05:24:05;;;;;;;10.80;2.95;;;;;;;;;;5070763;28;20033;-62
2022/09/20 05:26:46;;;;;;;7.07;2.35;;;;;;;;;;5069761;28;20025;-62
2022/09/20 05:29:35;;;;;;;11.10;3.92;;;;;;;;;;5055297;28;20476;-62
2022/09/20 05:32:40;;;;;;;15.15;3.38;;;;;;;;;;5072351;28;20035;-64
2022/09/20 05:35:44;;;;;;;7.43;2.65;;;;;;;;;;5071531;28;20039;-64
2022/09/20 05:38:10;;;;;;;;;;;;;;;;;;5026770;28;20041;-63
2022/09/20 05:41:07;;;;;;;10.48;2.47;;;;;;;;;;5052096;28;19970;-65
2022/09/20 05:43:40;;;;;;;11.75;3.67;;;;;;;;;;5052479;28;20037;-62
2022/09/20 05:46:33;;;;;;;13.90;3.22;;;;;;;;;;5053749;28;20037;-62
2022/09/20 05:49:17;;;;;;;9.73;2.93;;;;;;;;;;5072270;28;20040;-63
2022/09/20 05:51:57;;;;;;;9.82;3.30;;;;;;;;;;5072222;28;20656;-65
2022/09/20 05:54:44;;;;;;;9.43;2.90;;;;;;;;;;5072226;28;20036;-64
2022/09/20 05:57:19;;;;;;;11.65;3.30;;;;;;;;;;5054242;28;20033;-66
2022/09/20 06:00:07;;;;;;;12.60;3.53;;;;;;;;;;5061804;28;20028;-64
2022/09/20 06:03:03;;;;;;;13.30;3.20;;;;;;;;;;5072169;28;20059;-63
2022/09/20 06:05:38;;;;;;;9.70;2.85;;;;;;;;;;5067633;28;20308;-65
2022/09/20 06:08:27;;;;;;;11.52;2.78;;;;;;;;;;5051928;28;20107;-65
2022/09/20 06:11:04;;;;;;;9.27;2.15;;;;;;;;;;5051772;28;20029;-64
2022/09/20 06:13:38;;;;;;;3.88;2.28;;;;;;;;;;5060949;28;20028;-64
2022/09/20 06:16:09;;;;;;;16.67;3.20;;;;;;;;;;5064118;28;20035;-64
2022/09/20 06:18:42;;;;;;;10.05;3.00;;;;;;;;;;5062986;28;20029;-64
2022/09/20 06:21:17;;;;;;;13.02;3.25;;;;;;;;;;5063532;28;20502;-63
2022/09/20 06:23:43;;;;;;;9.52;2.90;;;;;;;;;;5070765;28;20117;-63
2022/09/20 06:26:24;;;;;;;10.43;3.28;;;;;;;;;;5071778;28;20021;-62
2022/09/20 06:29:00;;;;;;;10.95;2.95;;;;;;;;;;5059792;28;20037;-66
2022/09/20 06:31:26;;;;;;;8.10;2.42;;;;;;;;;;5066979;28;20060;-68
2022/09/20 06:34:13;;;;;;;10.57;2.85;;;;;;;;;;5066581;28;20044;-66
2022/09/20 06:43:03;;;;;;;4.45;2.28;;;;;;;;;;5066481;28;20107;-67
2022/09/20 06:45:30;;;;;;;9.13;2.35;;;;;;;;;;5064024;28;20017;-71
2022/09/20 06:47:57;;;;;;;8.77;2.60;;;;;;;;;;5062983;28;20037;-68
2022/09/20 06:50:22;;;;;;;6.32;2.55;;;;;;;;;;5055037;28;20092;-67
2022/09/20 06:52:48;;;;;;;9.63;2.75;;;;;;;;;;5055165;28;20068;-69
2022/09/20 06:55:21;;;;;;;4.65;2.00;;;;;;;;;;5058029;28;20029;-67
2022/09/20 06:57:47;;;;;;;5.15;1.92;;;;;;;;;;5072403;28;20074;-68
2022/09/20 07:00:14;;;;;;;15.00;3.10;;;;;;;;;;5073691;28;20021;-67
2022/09/20 07:02:43;;;;;;;3.22;1.60;;;;;;;;;;5074178;28;20064;-67
2022/09/20 07:05:21;;;;;;;8.35;1.92;;;;;;;;;;5071881;28;20375;-69
2022/09/20 07:07:47;;;;;;;3.05;1.80;;;;;;;;;;5068171;28;20075;-66
2022/09/20 07:10:14;;;;;;;9.18;2.15;;;;;;;;;;5053148;28;20056;-68
2022/09/20 07:12:40;;;;;;;3.25;1.67;;;;;;;;;;5053300;28;20033;-68
2022/09/20 07:15:07;;;;;;;7.13;1.90;;;;;;;;;;5053138;28;20028;-66
2022/09/20 07:17:33;;;;;;;4.13;1.40;;;;;;;;;;5057230;28;20037;-67
2022/09/20 07:19:59;;;;;;;1.83;1.30;;;;;;;;;;5071641;28;20021;-72
2022/09/20 07:22:26;;;;;;;6.20;1.60;;;;;;;;;;5072570;28;20386;-67
2022/09/20 07:24:52;;;;;;;5.30;1.50;;;;;;;;;;5056684;28;20469;-69
2022/09/20 07:27:19;;;;;;;5.28;1.70;;;;;;;;;;5072654;28;20498;-67
2022/09/20 07:29:45;;;;;;;7.15;1.85;;;;;;;;;;5072421;28;20501;-66
2022/09/20 07:32:11;;;;;;;8.73;1.70;;;;;;;;;;5072038;28;20112;-69
2022/09/20 07:34:36;;;;;;;5.05;1.70;;;;;;;;;;5063186;28;20060;-67
2022/09/20 07:37:02;;;;;;;5.93;1.60;;;;;;;;;;5055744;28;20036;-67
2022/09/20 07:39:28;;;;;;;5.32;1.30;;;;;;;;;;5063638;28;20436;-67
2022/09/20 07:41:54;;;;;;;2.60;1.48;;;;;;;;;;5072800;28;20328;-67
2022/09/20 07:44:20;;;;;;;2.72;1.33;;;;;;;;;;5070543;28;20021;-69
2022/09/20 07:46:48;;;;;;;3.58;1.48;;;;;;;;;;5072055;28;20059;-67
2022/09/20 07:49:14;;;;;;;3.10;1.65;;;;;;;;;;5072725;28;20086;-68
2022/09/20 07:51:40;;;;;;;3.80;1.38;;;;;;;;;;5071397;28;20044;-68
2022/09/20 07:54:06;;;;;;;3.15;1.48;;;;;;;;;;5066410;28;20009;-67
2022/09/20 07:56:32;;;;;;;2.90;1.58;;;;;;;;;;5066336;28;20056;-68
2022/09/20 07:58:57;;;;;;;8.48;1.42;;;;;;;;;;5072110;28;20476;-67
2022/09/20 08:01:23;;;;;;;4.55;1.60;;;;;;;;;;5071904;28;20445;-67
2022/09/20 08:03:50;;;;;;;4.25;1.83;;;;;;;;;;5066950;28;20065;-66
2022/09/20 08:06:17;;;;;;;3.97;1.77;;;;;;;;;;5072082;28;20032;-65
2022/09/20 08:08:43;;;;;;;6.25;1.50;;;;;;;;;;5069999;28;20059;-65
2022/09/20 08:11:13;;;;;;;6.97;1.50;;;;;;;;;;5071713;28;20024;-67
2022/09/20 08:13:47;;;;;;;3.50;1.40;;;;;;;;;;5070668;28;20020;-67
2022/09/20 08:16:13;;;;;;;2.13;1.35;;;;;;;;;;5071880;28;20029;-67
2022/09/20 08:18:48;;;;;;;4.25;1.55;;;;;;;;;;5068092;28;20028;-67
2022/09/20 08:21:14;;;;;;;5.32;2.53;;;;;;;;;;5068163;28;20029;-67
2022/09/20 08:23:43;;;;;;;6.63;1.23;;;;;;;;;;5071890;28;20036;-70
2022/09/20 08:26:11;;;;;;;3.60;1.33;;;;;;;;;;5070276;28;20115;-68
2022/09/20 08:28:38;;;;;;;4.22;2.30;;;;;;;;;;5064032;28;20025;-69
2022/09/20 08:31:18;;;;;;;4.63;1.30;;;;;;;;;;5071084;28;20115;-69
2022/09/20 08:33:45;;;;;;;2.45;1.40;;;;;;;;;;5060446;28;20041;-70
2022/09/20 08:36:13;;;;;;;4.63;1.40;;;;;;;;;;5051233;28;20394;-69
2022/09/20 08:38:40;;;;;;;5.65;1.40;;;;;;;;;;5050962;28;20029;-68
2022/09/20 08:41:11;;;;;;;5.32;1.50;;;;;;;;;;5051437;28;20029;-68
2022/09/20 08:43:43;;;;;;;5.43;1.67;;;;;;;;;;5051453;28;20033;-69
2022/09/20 08:46:16;;;;;;;6.30;1.73;;;;;;;;;;5055404;28;20037;-76
2022/09/20 08:48:43;;;;;;;3.90;1.33;;;;;;;;;;5059400;28;20059;-70
2022/09/20 08:51:14;;;;;;;5.20;1.55;;;;;;;;;;5061191;28;20020;-71
2022/09/20 08:53:45;;;;;;;3.03;1.40;;;;;;;;;;5070958;28;20499;-71
2022/09/20 08:56:11;;;;;;;7.18;1.42;;;;;;;;;;5066603;28;20029;-73
2022/09/20 08:58:38;;;;;;;5.70;1.40;;;;;;;;;;5067039;28;20035;-72
2022/09/20 09:01:05;;;;;;;5.28;1.30;;;;;;;;;;5062156;28;20380;-70
2022/09/20 09:03:33;;;;;;;4.78;1.42;;;;;;;;;;5083352;28;20086;-73
2022/09/20 09:06:00;;;;;;;4.50;1.50;;;;;;;;;;5076370;28;20038;-73
2022/09/20 09:08:27;;;;;;;4.05;1.48;;;;;;;;;;5066148;28;20029;-68
2022/09/20 09:10:56;;;;;;;6.28;1.77;;;;;;;;;;5049012;28;20037;-70
2022/09/20 09:13:33;;;;;;;3.55;1.70;;;;;;;;;;5057755;28;20032;-69
2022/09/20 09:16:05;;;;;;;5.55;1.90;;;;;;;;;;5050089;28;20484;-74
2022/09/20 09:18:35;;;;;;;5.72;2.60;;;;;;;;;;5050709;28;20044;-75
2022/09/20 09:21:04;;;;;;;3.53;1.40;;;;;;;;;;5053336;28;20032;-68
2022/09/20 09:23:40;;;;;;;2.75;1.35;;;;;;;;;;5056390;28;20028;-72
2022/09/20 09:26:14;;;;;;;2.97;1.45;;;;;;;;;;5065278;28;20380;-74
2022/09/20 09:28:40;;;;;;;3.10;1.10;;;;;;;;;;5064196;28;20131;-76
2022/09/20 09:31:25;;;;;;;3.42;1.40;;;;;;;;;;5066751;28;20099;-72
2022/09/20 09:33:51;;;;;;;4.10;1.50;;;;;;;;;;5069441;28;20106;-77
2022/09/20 09:36:24;;;;;;;3.17;1.70;;;;;;;;;;5070155;28;20036;-78
2022/09/20 09:38:51;;;;;;;4.13;1.40;;;;;;;;;;5069839;28;20105;-77
2022/09/20 09:41:24;;;;;;;3.58;1.00;;;;;;;;;;5070468;28;20074;-76
2022/09/20 09:44:17;;;;;;;1.17;0.85;;;;;;;;;;5070269;28;20064;-76
2022/09/20 09:46:43;;;;;;;3.38;1.17;;;;;;;;;;5069979;28;20029;-77
2022/09/20 09:49:18;;;;;;;1.90;1.10;;;;;;;;;;5067451;28;20040;-76
2022/09/20 09:52:14;;;;;;;2.70;0.93;;;;;;;;;;5050036;28;20111;-69
2022/09/20 09:54:51;;;;;;;4.22;1.25;;;;;;;;;;5049766;28;20491;-68
2022/09/20 09:57:42;;;;;;;4.55;1.52;;;;;;;;;;5049302;28;20033;-76
2022/09/20 10:00:17;;;;;;;4.38;1.13;;;;;;;;;;5060653;28;20064;-71
2022/09/20 10:03:10;;;;;;;3.72;1.25;;;;;;;;;;5059016;28;20041;-76
2022/09/20 10:05:57;;;;;;;6.40;1.20;;;;;;;;;;5060742;28;20487;-76
2022/09/20 10:09:02;;;;;;;2.03;1.00;;;;;;;;;;5061349;28;20037;-77
2022/09/20 10:11:44;;;;;;;3.08;1.33;;;;;;;;;;5071858;28;20179;-77
2022/09/20 10:14:37;;;;;;;2.90;1.10;;;;;;;;;;5072965;28;20499;-75
2022/09/20 10:17:21;;;;;;;1.75;1.20;;;;;;;;;;5066853;28;20032;-76
2022/09/20 10:20:13;;;;;;;3.30;1.20;;;;;;;;;;5054326;28;20025;-76
2022/09/20 10:23:05;;;;;;;5.05;1.58;;;;;;;;;;5063643;28;20025;-71
2022/09/20 10:26:16;;;;;;;10.98;7.38;;;;;;;;;;5063130;28;20040;-74
2022/09/20 10:29:12;;;;;;;1.25;0.82;;;;;;;;;;5080014;28;20052;-73
2022/09/20 10:31:56;;;;;;;1.52;0.98;;;;;;;;;;5068095;28;20086;-71
2022/09/20 10:34:43;;;;;;;2.50;1.00;;;;;;;;;;5063081;28;20045;-72
2022/09/20 10:37:32;;;;;;;5.63;1.00;;;;;;;;;;5062339;28;20033;-71
2022/09/20 10:40:18;;;;;;;5.30;1.05;;;;;;;;;;5057837;28;20025;-73
2022/09/20 10:43:14;;;;;;;6.07;1.10;;;;;;;;;;5053555;28;20029;-74
2022/09/20 10:46:12;;;;;;;3.03;1.00;;;;;;;;;;5052371;28;20135;-75
2022/09/20 10:48:50;;;;;;;2.05;1.17;;;;;;;;;;5053453;28;20090;-76
2022/09/20 10:51:28;;;;;;;6.15;1.30;;;;;;;;;;5053661;28;20037;-74
2022/09/20 10:54:23;;;;;;;2.67;1.08;;;;;;;;;;5062053;28;20112;-73
2022/09/20 10:56:55;;;;;;;2.80;0.90;;;;;;;;;;5072903;28;20036;-74
2022/09/20 10:59:46;;;;;;;1.87;0.90;;;;;;;;;;5072915;28;20157;-73
2022/09/20 11:02:49;;;;;;;3.90;1.00;;;;;;;;;;5071553;28;20139;-72
2022/09/20 11:05:45;;;;;;;2.43;1.10;;;;;;;;;;5072633;28;20032;-74
2022/09/20 11:08:14;;;;;;;3.10;0.95;;;;;;;;;;5052892;28;20075;-72
2022/09/20 11:11:01;;;;;;;5.03;1.30;;;;;;;;;;5053271;28;20100;-70
2022/09/20 11:13:33;;;;;;;3.45;1.10;;;;;;;;;;5053191;28;20422;-75
2022/09/20 11:16:26;;;;;;;1.75;1.10;;;;;;;;;;5052269;28;20091;-74
2022/09/20 11:19:17;;;;;;;3.03;1.73;;;;;;;;;;5058000;28;20121;-67
2022/09/20 11:22:00;;;;;;;1.95;1.20;;;;;;;;;;5072838;28;20044;-68
2022/09/20 11:24:35;;;;;;;2.45;1.20;;;;;;;;;;5072944;28;20048;-68
2022/09/20 11:27:30;;;;;;;3.78;1.10;;;;;;;;;;5072713;28;20044;-67
2022/09/20 11:30:18;;;;;;;4.63;1.10;;;;;;;;;;5071263;28;20068;-67
2022/09/20 11:33:16;;;;;;;2.97;1.50;;;;;;;;;;5072704;28;20033;-67
2022/09/20 11:35:46;;;;;;;3.85;2.10;;;;;;;;;;5067176;28;20045;-67
2022/09/20 11:38:26;;;;;;;1.67;1.13;;;;;;;;;;5061244;28;20094;-67
2022/09/20 11:41:12;;;;;;;2.65;1.58;;;;;;;;;;5073336;28;20036;-66
2022/09/20 11:43:43;;;;;;;1.85;1.13;;;;;;;;;;5073462;28;20028;-66
2022/09/20 11:46:21;;;;;;;2.28;1.10;;;;;;;;;;5061384;28;20029;-66
2022/09/20 11:48:53;;;;;;;2.63;1.23;;;;;;;;;;5053424;28;20063;-66
2022/09/20 11:51:48;;;;;;;8.07;1.02;;;;;;;;;;5053194;28;20033;-67
2022/09/20 11:54:24;;;;;;;2.25;0.95;;;;;;;;;;5053359;28;20075;-66
2022/09/20 11:56:55;;;;;;;2.75;1.10;;;;;;;;;;5053020;28;20388;-67
2022/09/20 11:59:42;;;;;;;2.78;1.13;;;;;;;;;;5056080;28;20029;-70
2022/09/20 12:02:31;;;;;;;3.30;1.40;;;;;;;;;;5051515;28;20130;-66
2022/09/20 12:04:57;;;;;;;2.75;0.98;;;;;;;;;;5052108;28;20056;-66
2022/09/20 12:07:27;;;;;;;2.33;1.08;;;;;;;;;;5054068;28;20037;-68
2022/09/20 12:10:00;;;;;;;5.28;1.58;;;;;;;;;;5053729;28;20033;-67
2022/09/20 12:12:59;;;;;;;4.55;1.27;;;;;;;;;;5053796;28;20040;-68
2022/09/20 12:15:30;;;;;;;3.85;1.40;;;;;;;;;;5073654;28;20098;-67
2022/09/20 12:17:56;;;;;;;4.35;1.13;;;;;;;;;;5073407;28;20107;-66
2022/09/20 12:20:34;;;;;;;3.15;2.00;;;;;;;;;;5072286;28;20112;-70
2022/09/20 12:23:43;;;;;;;3.70;1.60;;;;;;;;;;5073530;28;20033;-68
2022/09/20 12:26:20;;;;;;;4.40;1.20;;;;;;;;;;5073557;28;20068;-68
2022/09/20 12:28:52;;;;;;;4.03;1.10;;;;;;;;;;5073456;28;20086;-65
2022/09/20 12:31:20;;;;;;;2.28;0.93;;;;;;;;;;5073326;28;20043;-66
2022/09/20 12:34:16;;;;;;;2.38;1.00;;;;;;;;;;5072617;28;20063;-65
2022/09/20 12:36:43;;;;;;;1.90;1.25;;;;;;;;;;5068574;28;20495;-66
2022/09/20 12:39:12;;;;;;;3.03;1.23;;;;;;;;;;5073375;28;20078;-66
2022/09/20 12:42:07;;;;;;;2.40;1.00;;;;;;;;;;5073515;28;20081;-65
2022/09/20 12:44:36;;;;;;;5.35;1.23;;;;;;;;;;5067685;28;20048;-67
2022/09/20 12:47:11;;;;;;;2.00;0.85;;;;;;;;;;5073215;28;20475;-66
2022/09/20 12:53:03;;;;;;;2.63;1.10;;;;;;;;;;5072795;28;20032;-66
2022/09/20 12:55:32;;;;;;;1.73;0.90;;;;;;;;;;5071712;28;20029;-65
2022/09/20 12:58:13;;;;;;;4.47;1.30;;;;;;;;;;5072672;28;20036;-66
2022/09/20 13:00:59;;;;;;;4.25;1.40;;;;;;;;;;5072838;28;20045;-66
2022/09/20 13:03:35;;;;;;;3.72;1.10;;;;;;;;;;5072899;28;20036;-66
2022/09/20 13:06:11;;;;;;;3.28;1.08;;;;;;;;;;5071704;28;20148;-67
2022/09/20 13:08:59;;;;;;;4.43;1.23;;;;;;;;;;5072897;28;20029;-70
2022/09/20 13:11:27;;;;;;;2.22;1.08;;;;;;;;;;5072486;28;20162;-69
2022/09/20 13:14:07;;;;;;;4.40;1.63;;;;;;;;;;5072866;28;20024;-69
2022/09/20 13:16:36;;;;;;;3.85;1.15;;;;;;;;;;5072846;28;20043;-67
2022/09/20 13:19:05;;;;;;;3.15;1.10;;;;;;;;;;5072769;28;20113;-69
2022/09/20 13:21:33;;;;;;;2.80;1.10;;;;;;;;;;5072566;28;20036;-68
2022/09/20 13:24:01;;;;;;;5.00;1.27;;;;;;;;;;5072785;28;20376;-67
2022/09/20 13:26:32;;;;;;;4.28;1.10;;;;;;;;;;5071202;28;20037;-68
2022/09/20 13:29:00;;;;;;;7.60;1.15;;;;;;;;;;5072721;28;20041;-68
2022/09/20 13:31:28;;;;;;;2.70;1.00;;;;;;;;;;5072711;28;20028;-68
2022/09/20 13:33:54;;;;;;;6.68;1.25;;;;;;;;;;5072930;28;20040;-67
2022/09/20 13:36:30;;;;;;;3.83;1.20;;;;;;;;;;5072823;28;20039;-66
2022/09/20 13:38:57;;;;;;;3.63;1.10;;;;;;;;;;5072785;28;20040;-65
2022/09/20 13:41:27;;;;;;;3.15;1.25;;;;;;;;;;5057950;28;20078;-66
2022/09/20 13:43:54;;;;;;;2.17;1.20;;;;;;;;;;5051744;28;20119;-66
2022/09/20 13:46:31;;;;;;;7.55;1.33;;;;;;;;;;5055211;28;20465;-68
2022/09/20 13:49:13;;;;;;;4.00;1.55;;;;;;;;;;5055660;28;20119;-67
2022/09/20 13:51:40;;;;;;;5.43;0.90;;;;;;;;;;5055494;28;20488;-66
2022/09/20 13:54:26;;;;;;;2.03;1.08;;;;;;;;;;5055107;28;20033;-65
2022/09/20 13:56:59;;;;;;;3.20;1.20;;;;;;;;;;5055563;28;20037;-65
2022/09/20 13:59:32;;;;;;;2.75;1.30;;;;;;;;;;5065635;28;20037;-65
2022/09/20 14:01:58;;;;;;;2.20;1.00;;;;;;;;;;5073934;28;20459;-66
2022/09/20 14:04:26;;;;;;;1.40;0.90;;;;;;;;;;5075989;28;20056;-64
2022/09/20 14:06:55;;;;;;;3.10;0.98;;;;;;;;;;5076181;28;20028;-65
2022/09/20 14:09:28;;;;;;;4.13;1.23;;;;;;;;;;5074874;28;20025;-66
2022/09/20 14:11:55;;;;;;;1.27;0.90;;;;;;;;;;5076484;28;20055;-68
2022/09/20 14:14:22;;;;;;;2.92;1.50;;;;;;;;;;5092046;28;20112;-66
2022/09/20 14:16:50;;;;;;;3.72;1.20;;;;;;;;;;5075979;28;20395;-68
2022/09/20 14:19:19;;;;;;;2.97;1.10;;;;;;;;;;5075827;28;20079;-68
2022/09/20 14:21:47;;;;;;;2.47;1.00;;;;;;;;;;5075643;28;20078;-67
2022/09/20 14:24:12;;;;;;;4.40;1.48;;;;;;;;;;5074537;28;20121;-68
2022/09/20 14:26:58;;;;;;;1.73;1.00;;;;;;;;;;5074780;28;20168;-67
2022/09/20 14:29:32;;;;;;;1.90;1.02;;;;;;;;;;5075970;28;20040;-67
2022/09/20 14:32:01;;;;;;;7.43;0.90;;;;;;;;;;5074534;28;20035;-67
2022/09/20 14:34:27;;;;;;;8.18;1.55;;;;;;;;;;5075711;28;20113;-68
2022/09/20 14:37:19;;;;;;;3.50;1.13;;;;;;;;;;5075595;28;20032;-68
2022/09/20 14:39:48;;;;;;;2.60;0.95;;;;;;;;;;5075440;28;20028;-68
2022/09/20 14:42:34;;;;;;;5.18;1.25;;;;;;;;;;5075763;28;20505;-67
2022/09/20 14:45:03;;;;;;;10.02;1.02;;;;;;;;;;5075721;28;20032;-66
2022/09/20 14:47:37;;;;;;;4.40;1.15;;;;;;;;;;5075764;28;20029;-67
2022/09/20 14:50:28;;;;;;;1.48;0.90;;;;;;;;;;5075768;28;20033;-66
2022/09/20 14:53:12;;;;;;;4.90;1.17;;;;;;;;;;5075497;28;20449;-66
2022/09/20 14:55:41;;;;;;;3.88;1.23;;;;;;;;;;5074970;28;20086;-66
2022/09/20 14:58:10;;;;;;;3.35;1.02;;;;;;;;;;5075521;28;20070;-65
2022/09/20 15:00:47;;;;;;;2.67;1.00;;;;;;;;;;5070512;28;20142;-68
2022/09/20 15:03:15;;;;;;;2.15;1.10;;;;;;;;;;5075279;28;20028;-66
2022/09/20 15:05:44;;;;;;;7.93;1.10;;;;;;;;;;5075455;28;20024;-67
2022/09/20 15:08:13;;;;;;;4.53;1.00;;;;;;;;;;5074967;28;20112;-68
2022/09/20 15:10:38;;;;;;;6.90;1.00;;;;;;;;;;5072015;28;20333;-67
2022/09/20 15:13:04;;;;;;;4.47;1.10;;;;;;;;;;5090079;28;20078;-66
2022/09/20 15:15:31;;;;;;;2.33;1.00;;;;;;;;;;5074148;28;20028;-67
2022/09/20 15:17:57;;;;;;;2.35;0.75;;;;;;;;;;5073734;28;20044;-67
2022/09/20 15:20:23;;;;;;;2.35;1.05;;;;;;;;;;5074183;28;20024;-67
2022/09/20 15:22:49;;;;;;;1.98;0.90;;;;;;;;;;5074500;28;20471;-70
2022/09/20 15:25:22;;;;;;;3.67;1.00;;;;;;;;;;5074075;28;20034;-76
2022/09/20 15:27:49;;;;;;;;;;;;;;;;;;5074091;28;20028;-67
2022/09/20 15:30:18;;;;;;;2.97;1.00;;;;;;;;;;5073105;28;19912;-68
2022/09/20 15:32:45;;;;;;;4.32;1.10;;;;;;;;;;5071883;28;20037;-68
2022/09/20 15:35:13;;;;;;;2.50;1.05;;;;;;;;;;5072920;28;20036;-67
2022/09/20 15:37:39;;;;;;;3.15;0.95;;;;;;;;;;5072279;28;20032;-67
2022/09/20 15:40:06;;;;;;;4.30;1.00;;;;;;;;;;5072793;28;20028;-67
2022/09/20 15:42:37;;;;;;;3.35;1.10;;;;;;;;;;5073256;28;20064;-66
2022/09/20 15:45:08;;;;;;;2.50;0.80;;;;;;;;;;5073216;28;20573;-66
2022/09/20 15:47:36;;;;;;;9.50;1.35;;;;;;;;;;5073102;28;20204;-66
2022/09/20 15:50:05;;;;;;;2.17;1.00;;;;;;;;;;5070925;28;20066;-66
2022/09/20 15:52:41;;;;;;;2.65;1.00;;;;;;;;;;5073002;28;20029;-67